createdAt,value
2023-05-12T00:03:26.503Z,77.8
2023-05-12T00:18:36.403Z,77.8
2023-05-12T00:33:45.612Z,77.8
2023-05-12T00:48:55.297Z,77.6
2023-05-12T01:04:04.733Z,77.8
2023-05-12T01:19:15.403Z,77.9
2023-05-12T01:34:25.093Z,78
2023-05-12T01:49:34.353Z,78
2023-05-12T02:04:44.432Z,78
2023-05-12T02:19:54.193Z,78.2
2023-05-12T02:35:04.032Z,78.3
2023-05-12T02:50:14.124Z,78.3
2023-05-12T03:05:23.945Z,78.3
2023-05-12T03:20:33.878Z,78.3
2023-05-12T03:35:43.741Z,78.3
2023-05-12T03:50:53.598Z,78.4
2023-05-12T04:06:03.538Z,78.4
2023-05-12T04:21:12.819Z,78.4
2023-05-12T04:36:22.368Z,78.4
2023-05-12T04:51:32.059Z,78.3
2023-05-12T05:06:41.516Z,78.2
2023-05-12T05:21:51.138Z,78.1
2023-05-12T05:37:01.069Z,78
2023-05-12T05:52:11.088Z,77.8
2023-05-12T06:07:22.686Z,77.6
2023-05-12T06:22:32.369Z,77.5
2023-05-12T06:37:42.232Z,77.3
2023-05-12T06:52:52.124Z,77.2
2023-05-12T07:08:02.567Z,77.2
2023-05-12T07:23:12.535Z,77
2023-05-12T07:38:22.469Z,76.7
2023-05-12T07:53:32.824Z,76.3
2023-05-12T08:08:43.220Z,75.9
2023-05-12T08:23:53.312Z,75.4
2023-05-12T08:39:03.663Z,74.9
2023-05-12T08:54:13.597Z,74.5
2023-05-12T09:09:23.662Z,74.1
2023-05-12T09:24:34.021Z,73.9
2023-05-12T09:39:44.402Z,73.6
2023-05-12T09:54:54.646Z,73.4
2023-05-12T10:10:04.684Z,73
2023-05-12T10:25:15.121Z,72.4
2023-05-12T10:40:25.395Z,71.9
2023-05-12T10:55:36.880Z,71.2
2023-05-12T11:10:48.008Z,70.7
2023-05-12T11:25:58.722Z,69.7
2023-05-12T11:41:09.360Z,68.7
2023-05-12T11:56:19.607Z,67.9
2023-05-12T12:11:30.166Z,66.2
2023-05-12T12:26:40.240Z,65.5
2023-05-12T12:41:49.809Z,67
2023-05-12T12:57:00.039Z,65.6
2023-05-12T13:12:09.986Z,65.8
2023-05-12T13:27:20.638Z,62.6
2023-05-12T13:42:32.628Z,60
2023-05-12T13:57:43.694Z,58.7
2023-05-12T14:12:54.626Z,57.5
2023-05-12T14:28:07.078Z,56.2
2023-05-12T14:43:15.986Z,59.3
2023-05-12T14:58:26.965Z,56.4
2023-05-12T15:13:37.378Z,55.8
2023-05-12T15:28:48.453Z,55.2
2023-05-12T15:43:58.080Z,55.1
2023-05-12T15:59:05.724Z,57.9
2023-05-12T16:14:14.329Z,58.7
2023-05-12T16:29:24.396Z,56.7
2023-05-12T16:44:34.664Z,56.6
2023-05-12T16:59:44.003Z,57.8
2023-05-12T17:15:10.726Z,58.4
2023-05-12T17:30:20.435Z,58.4
2023-05-12T17:45:30.912Z,58.8
2023-05-12T18:00:41.270Z,58.2
2023-05-12T18:15:51.450Z,59
2023-05-12T18:31:17.095Z,59.1
2023-05-12T18:46:26.642Z,59.3
2023-05-12T19:01:36.456Z,59.5
2023-05-12T19:16:46.844Z,58.9
2023-05-12T19:31:56.924Z,59.8
2023-05-12T19:47:07.057Z,59.8
2023-05-12T20:02:16.826Z,59.9
2023-05-12T20:17:26.429Z,59
2023-05-12T20:32:36.710Z,59.9
2023-05-12T20:47:46.499Z,59.8
2023-05-12T21:02:56.463Z,59.4
2023-05-12T21:18:07.258Z,59.7
2023-05-12T21:33:16.584Z,59.7
2023-05-12T21:48:26.147Z,59.3
2023-05-12T22:03:35.997Z,59.7
2023-05-12T22:18:45.373Z,59.7
2023-05-12T22:33:55.305Z,59.7
2023-05-12T22:49:05.560Z,59.9
2023-05-12T23:04:15.203Z,60.1
2023-05-12T23:19:24.849Z,60.2
2023-05-12T23:34:34.067Z,60.3
2023-05-12T23:49:43.132Z,60.5
